createdAt,value
2018-07-11T00:01:26.828Z,19.20
2018-07-11T00:03:56.756Z,19.20
2018-07-11T00:06:26.828Z,19.20
2018-07-11T00:08:57.039Z,19.10
2018-07-11T00:11:27.168Z,19.20
2018-07-11T00:13:57.228Z,19.20
2018-07-11T00:16:27.208Z,19.20
2018-07-11T00:18:57.053Z,19.10
2018-07-11T00:21:27.209Z,19.10
2018-07-11T00:23:57.008Z,19.20
2018-07-11T00:26:26.588Z,19.10
2018-07-11T00:28:56.408Z,19.10
2018-07-11T00:31:26.229Z,19.10
2018-07-11T00:33:55.588Z,19.10
2018-07-11T00:36:25.688Z,19.10
2018-07-11T00:38:55.808Z,19.00
2018-07-11T00:41:26.068Z,19.00
2018-07-11T00:43:55.828Z,19.00
2018-07-11T00:46:26.209Z,19.00
2018-07-11T00:48:56.528Z,19.00
2018-07-11T00:51:26.648Z,18.90
2018-07-11T00:53:56.968Z,19.00
2018-07-11T00:56:27.188Z,19.00
2018-07-11T00:59:19.609Z,18.90
2018-07-11T01:01:50.988Z,18.90
2018-07-11T01:04:20.928Z,18.90
2018-07-11T01:06:52.068Z,18.90
2018-07-11T01:09:22.288Z,18.90
2018-07-11T01:11:53.428Z,18.90
2018-07-11T01:14:22.949Z,19.00
2018-07-11T01:16:53.108Z,19.00
2018-07-11T01:19:23.551Z,19.00
2018-07-11T01:22:03.490Z,18.90
2018-07-11T01:24:33.448Z,19.00
2018-07-11T01:27:02.688Z,18.90
2018-07-11T01:29:32.326Z,18.90
2018-07-11T01:32:02.130Z,18.90
2018-07-11T01:34:32.147Z,19.00
2018-07-11T01:37:02.450Z,19.00
2018-07-11T01:39:32.628Z,19.00
2018-07-11T01:42:01.953Z,19.00
2018-07-11T01:44:31.772Z,19.00
2018-07-11T01:47:01.893Z,19.10
2018-07-11T01:49:32.096Z,19.00
2018-07-11T01:52:17.772Z,19.00
2018-07-11T01:54:47.592Z,19.10
2018-07-11T01:57:17.332Z,19.00
2018-07-11T01:59:47.333Z,19.10
2018-07-11T02:02:17.612Z,19.10
2018-07-11T02:04:47.372Z,19.10
2018-07-11T02:07:17.172Z,19.00
2018-07-11T02:09:47.058Z,19.00
2018-07-11T02:12:16.932Z,19.00
2018-07-11T02:14:51.912Z,19.00
2018-07-11T02:17:22.172Z,19.00
2018-07-11T02:19:52.273Z,18.90
2018-07-11T02:22:22.252Z,19.00
2018-07-11T02:24:52.512Z,19.00
2018-07-11T02:27:22.592Z,19.00
2018-07-11T02:29:52.513Z,19.00
2018-07-11T02:32:22.313Z,19.10
2018-07-11T02:34:52.192Z,19.00
2018-07-11T02:37:22.152Z,18.90
2018-07-11T02:39:51.415Z,19.00
2018-07-11T02:42:21.733Z,18.90
2018-07-11T02:44:51.873Z,19.00
2018-07-11T02:47:27.377Z,19.00
2018-07-11T02:49:57.192Z,18.90
2018-07-11T02:52:26.933Z,19.00
2018-07-11T02:55:27.332Z,19.00
2018-07-11T02:57:56.950Z,19.00
2018-07-11T03:00:26.512Z,19.00
2018-07-11T03:02:56.209Z,19.00
2018-07-11T03:05:26.233Z,19.10
2018-07-11T03:07:55.652Z,19.10
2018-07-11T03:10:25.307Z,19.00
2018-07-11T03:12:54.928Z,19.10
2018-07-11T03:15:24.531Z,19.10
2018-07-11T03:17:54.329Z,19.00
2018-07-11T03:20:24.529Z,19.10
2018-07-11T03:22:54.529Z,19.00
2018-07-11T03:25:24.389Z,19.00
2018-07-11T03:27:54.289Z,19.00
2018-07-11T03:30:24.149Z,18.90
2018-07-11T03:32:53.709Z,19.00
2018-07-11T03:35:23.830Z,19.00
2018-07-11T03:37:53.669Z,19.10
2018-07-11T03:40:23.330Z,18.90
2018-07-11T03:42:53.249Z,18.90
2018-07-11T03:45:23.192Z,18.90
2018-07-11T03:47:52.854Z,18.90
2018-07-11T03:50:22.571Z,18.90
2018-07-11T03:52:52.349Z,18.90
2018-07-11T03:55:21.970Z,19.00
2018-07-11T03:57:52.069Z,18.90
2018-07-11T04:00:25.549Z,19.00
2018-07-11T04:02:56.749Z,19.10
2018-07-11T04:05:26.389Z,19.10
2018-07-11T04:07:55.929Z,19.20
2018-07-11T04:10:25.533Z,19.00
2018-07-11T04:13:01.789Z,19.30
2018-07-11T04:15:31.449Z,19.30
2018-07-11T04:18:01.090Z,19.30
2018-07-11T04:20:30.791Z,19.30
2018-07-11T04:23:00.549Z,19.40
2018-07-11T04:25:30.371Z,19.40
2018-07-11T04:28:00.331Z,19.30
2018-07-11T04:30:30.229Z,19.30
2018-07-11T04:33:00.093Z,19.30
2018-07-11T04:35:30.149Z,19.30
2018-07-11T04:38:00.649Z,19.30
2018-07-11T04:40:30.449Z,19.40
2018-07-11T04:43:00.470Z,19.40
2018-07-11T04:45:30.709Z,19.50
2018-07-11T04:48:00.929Z,19.40
2018-07-11T04:50:30.889Z,19.30
2018-07-11T04:53:06.229Z,19.40
2018-07-11T04:55:36.349Z,19.50
2018-07-11T04:58:06.250Z,19.40
2018-07-11T05:00:36.232Z,19.50
2018-07-11T05:03:05.983Z,19.50
2018-07-11T05:05:35.669Z,19.50
2018-07-11T05:08:05.252Z,19.60
2018-07-11T05:10:35.131Z,19.50
2018-07-11T05:13:04.834Z,19.50
2018-07-11T05:15:34.974Z,19.60
2018-07-11T05:18:04.672Z,19.60
2018-07-11T05:20:34.411Z,19.60
2018-07-11T05:23:04.252Z,19.60
2018-07-11T05:25:34.052Z,19.70
2018-07-11T05:28:03.872Z,19.70
2018-07-11T05:30:33.551Z,19.90
2018-07-11T05:33:03.232Z,19.90
2018-07-11T05:35:32.912Z,19.90
2018-07-11T05:38:02.432Z,19.90
2018-07-11T05:40:32.393Z,20.00
2018-07-11T05:43:02.452Z,20.10
2018-07-11T05:45:32.072Z,20.00
2018-07-11T05:48:01.918Z,20.00
2018-07-11T05:50:31.691Z,20.10
2018-07-11T05:53:01.371Z,20.10
2018-07-11T05:55:30.933Z,20.10
2018-07-11T05:58:00.616Z,20.20
2018-07-11T06:00:30.512Z,20.30
2018-07-11T06:03:00.271Z,20.20
2018-07-11T06:05:30.051Z,20.20
2018-07-11T06:07:59.852Z,20.20
2018-07-11T06:10:29.660Z,20.10
2018-07-11T06:12:59.571Z,20.20
2018-07-11T06:15:29.231Z,20.20
2018-07-11T06:17:58.472Z,20.20
2018-07-11T06:20:28.391Z,20.30
2018-07-11T06:22:58.637Z,20.20
2018-07-11T06:25:28.311Z,20.20
2018-07-11T06:27:58.047Z,20.30
2018-07-11T06:30:27.871Z,20.40
2018-07-11T06:32:57.791Z,20.50
2018-07-11T06:35:27.571Z,20.60
2018-07-11T06:37:57.283Z,20.50
2018-07-11T06:40:26.931Z,20.60
2018-07-11T06:42:57.431Z,20.50
2018-07-11T06:45:27.131Z,20.60
2018-07-11T06:47:56.846Z,20.60
2018-07-11T06:50:26.572Z,20.70
2018-07-11T06:52:56.277Z,20.60
2018-07-11T06:55:26.193Z,20.70
2018-07-11T06:57:55.952Z,20.60
2018-07-11T07:00:25.771Z,20.60
2018-07-11T07:02:55.031Z,20.70
2018-07-11T07:05:24.771Z,20.70
2018-07-11T07:07:54.634Z,20.80
2018-07-11T07:10:24.577Z,20.90
2018-07-11T07:12:54.029Z,20.70
2018-07-11T07:15:24.928Z,20.90
2018-07-11T07:17:55.009Z,21.10
2018-07-11T07:20:24.809Z,21.10
2018-07-11T07:22:55.309Z,21.10
2018-07-11T07:25:25.347Z,21.00
2018-07-11T07:27:55.169Z,21.10
2018-07-11T07:30:24.989Z,21.10
2018-07-11T07:32:54.708Z,21.10
2018-07-11T07:35:23.969Z,21.10
2018-07-11T07:37:53.769Z,21.20
2018-07-11T07:40:23.391Z,21.20
2018-07-11T07:42:53.409Z,21.20
2018-07-11T07:45:23.510Z,21.20
2018-07-11T07:47:53.430Z,21.10
2018-07-11T07:50:23.149Z,21.20
2018-07-11T07:52:53.502Z,21.30
2018-07-11T07:55:23.189Z,21.20
2018-07-11T07:57:53.109Z,21.20
2018-07-11T08:00:22.934Z,21.30
2018-07-11T08:02:52.889Z,21.30
2018-07-11T08:05:22.608Z,21.40
2018-07-11T08:07:52.449Z,21.40
2018-07-11T08:10:22.089Z,21.40
2018-07-11T08:12:51.930Z,21.40
2018-07-11T08:15:21.648Z,21.30
2018-07-11T08:17:51.289Z,21.40
2018-07-11T08:20:21.029Z,21.40
2018-07-11T08:23:38.528Z,21.50
2018-07-11T08:26:24.888Z,21.70
2018-07-11T08:31:23.429Z,21.90
2018-07-11T08:34:08.230Z,22.20
2018-07-11T08:38:48.569Z,22.40
2018-07-11T08:41:56.449Z,22.70
2018-07-11T08:47:47.038Z,22.70
2018-07-11T08:50:37.428Z,22.90
2018-07-11T08:53:22.709Z,23.00
2018-07-11T08:56:12.029Z,22.90
2018-07-11T08:59:00.828Z,22.90
2018-07-11T09:01:57.029Z,23.10
2018-07-11T09:14:53.588Z,23.20
2018-07-11T09:18:41.648Z,23.20
2018-07-11T09:21:25.108Z,23.00
2018-07-11T09:25:04.988Z,22.90
2018-07-11T09:27:34.968Z,22.90
2018-07-11T09:30:04.809Z,23.10
2018-07-11T09:32:35.108Z,23.30
2018-07-11T09:35:04.828Z,23.50
2018-07-11T09:37:34.860Z,23.90
2018-07-11T09:40:04.528Z,23.70
2018-07-11T09:42:34.529Z,23.60
2018-07-11T09:45:04.469Z,23.80
2018-07-11T09:47:34.551Z,23.90
2018-07-11T09:50:04.309Z,23.90
2018-07-11T09:52:34.189Z,23.80
2018-07-11T09:55:04.688Z,23.50
2018-07-11T09:57:35.602Z,23.50
2018-07-11T10:00:05.755Z,23.20
2018-07-11T10:02:36.274Z,23.30
2018-07-11T10:05:06.188Z,23.40
2018-07-11T10:07:35.990Z,23.20
2018-07-11T10:10:06.115Z,23.20
2018-07-11T10:12:35.764Z,23.40
2018-07-11T10:15:05.694Z,23.60
2018-07-11T10:17:36.115Z,23.50
2018-07-11T10:20:06.254Z,23.40
2018-07-11T10:22:36.115Z,23.40
2018-07-11T10:25:06.374Z,23.20
2018-07-11T10:27:36.233Z,23.00
2018-07-11T10:30:06.774Z,23.10
2018-07-11T10:32:36.474Z,22.80
2018-07-11T10:35:06.453Z,23.00
2018-07-11T10:37:36.653Z,22.90
2018-07-11T10:40:06.414Z,23.00
2018-07-11T10:42:36.135Z,22.90
2018-07-11T10:45:05.897Z,23.20
2018-07-11T10:47:35.815Z,23.10
2018-07-11T10:50:05.494Z,23.00
2018-07-11T10:52:35.314Z,23.10
2018-07-11T10:55:05.014Z,23.00
2018-07-11T10:57:34.741Z,23.10
2018-07-11T11:00:04.795Z,22.90
2018-07-11T11:02:34.357Z,23.00
2018-07-11T11:05:04.475Z,22.50
2018-07-11T11:07:34.173Z,22.60
2018-07-11T11:10:03.854Z,22.40
2018-07-11T11:12:33.513Z,22.60
2018-07-11T11:15:03.334Z,22.40
2018-07-11T11:17:33.354Z,22.10
2018-07-11T11:20:03.074Z,22.40
2018-07-11T11:22:32.993Z,22.60
2018-07-11T11:25:02.815Z,22.80
2018-07-11T11:27:32.633Z,22.90
2018-07-11T11:30:02.774Z,23.00
2018-07-11T11:32:32.521Z,23.30
2018-07-11T11:35:02.315Z,23.40
2018-07-11T11:37:32.094Z,23.40
2018-07-11T11:40:02.234Z,23.50
2018-07-11T11:42:32.126Z,23.40
2018-07-11T11:47:40.954Z,23.40
2018-07-11T11:50:10.734Z,23.40
2018-07-11T11:52:40.515Z,23.20
2018-07-11T11:55:10.355Z,23.50
2018-07-11T11:57:40.839Z,23.90
2018-07-11T12:00:10.595Z,23.90
2018-07-11T12:02:40.355Z,23.80
2018-07-11T12:05:41.035Z,24.00
2018-07-11T12:08:10.855Z,23.80
2018-07-11T12:10:40.512Z,23.50
2018-07-11T12:13:10.252Z,23.80
2018-07-11T12:15:40.013Z,23.60
2018-07-11T12:18:09.672Z,23.50
2018-07-11T12:20:39.472Z,23.40
2018-07-11T12:23:09.195Z,23.20
2018-07-11T12:25:54.012Z,23.10
2018-07-11T12:28:23.611Z,23.10
2018-07-11T12:30:53.193Z,23.10
2018-07-11T12:33:23.160Z,23.20
2018-07-11T12:35:53.091Z,23.50
2018-07-11T12:38:23.491Z,23.50
2018-07-11T12:40:53.252Z,24.00
2018-07-11T12:43:23.528Z,23.90
2018-07-11T12:45:53.131Z,24.00
2018-07-11T12:48:28.151Z,23.90
2018-07-11T12:50:57.471Z,23.80
2018-07-11T12:53:27.971Z,23.80
2018-07-11T12:55:58.234Z,23.70
2018-07-11T12:58:28.792Z,23.60
2018-07-11T13:00:58.793Z,23.30
2018-07-11T13:03:28.791Z,23.10
2018-07-11T13:05:58.811Z,22.90
2018-07-11T13:08:28.820Z,23.00
2018-07-11T13:10:59.045Z,23.20
2018-07-11T13:13:28.718Z,22.90
2018-07-11T13:15:58.489Z,23.20
2018-07-11T13:18:28.345Z,23.50
2018-07-11T13:20:58.036Z,23.70
2018-07-11T13:23:27.671Z,23.20
2018-07-11T13:25:57.250Z,23.50
2018-07-11T13:28:33.959Z,23.60
2018-07-11T13:31:03.791Z,23.70
2018-07-11T13:33:33.490Z,23.90
2018-07-11T13:36:03.030Z,23.90
2018-07-11T13:38:32.971Z,23.70
2018-07-11T13:41:02.579Z,23.90
2018-07-11T13:43:32.123Z,23.90
2018-07-11T13:46:01.406Z,23.90
2018-07-11T13:48:31.044Z,24.30
2018-07-11T13:51:00.504Z,24.60
2018-07-11T13:53:30.544Z,25.00
2018-07-11T13:56:00.646Z,25.10
2018-07-11T13:58:30.751Z,25.20
2018-07-11T14:01:00.530Z,25.50
2018-07-11T14:03:30.152Z,25.70
2018-07-11T14:05:59.935Z,26.10
2018-07-11T14:08:29.994Z,26.30
2018-07-11T14:11:00.073Z,26.20
2018-07-11T14:13:31.568Z,26.10
2018-07-11T14:16:02.168Z,26.50
2018-07-11T14:18:33.048Z,26.10
2018-07-11T14:21:03.711Z,25.80
2018-07-11T14:23:41.273Z,25.80
2018-07-11T14:26:13.816Z,26.10
2018-07-11T14:28:48.217Z,26.00
2018-07-11T14:31:32.294Z,26.60
2018-07-11T14:34:06.617Z,26.80
2018-07-11T14:36:37.538Z,26.90
2018-07-11T14:39:08.891Z,27.50
2018-07-11T14:41:39.116Z,27.30
2018-07-11T14:44:09.809Z,27.50
2018-07-11T14:46:40.449Z,27.30
2018-07-11T14:49:10.872Z,27.40
2018-07-11T14:51:41.926Z,27.60
2018-07-11T14:54:12.408Z,27.50
2018-07-11T14:56:43.009Z,27.40
2018-07-11T14:59:13.808Z,27.10
2018-07-11T15:01:43.991Z,26.60
2018-07-11T15:04:13.969Z,26.00
2018-07-11T15:06:44.289Z,25.70
2018-07-11T15:09:14.495Z,25.50
2018-07-11T15:11:44.908Z,25.10
2018-07-11T15:14:16.089Z,25.10
2018-07-11T15:16:46.748Z,25.10
2018-07-11T15:19:18.348Z,25.00
2018-07-11T15:21:49.248Z,24.90
2018-07-11T15:24:19.889Z,25.00
2018-07-11T15:26:50.829Z,24.80
2018-07-11T15:29:21.648Z,24.90
2018-07-11T15:31:52.673Z,24.90
2018-07-11T15:34:24.309Z,24.60
2018-07-11T15:36:54.549Z,24.60
2018-07-11T15:39:25.631Z,24.40
2018-07-11T15:41:55.968Z,24.30
2018-07-11T15:44:26.308Z,24.30
2018-07-11T15:46:56.448Z,24.30
2018-07-11T15:49:26.429Z,24.30
2018-07-11T15:51:57.348Z,24.70
2018-07-11T15:54:27.648Z,25.30
2018-07-11T15:56:57.400Z,25.70
2018-07-11T15:59:31.818Z,26.30
2018-07-11T16:02:01.908Z,26.70
2018-07-11T16:04:39.430Z,26.40
2018-07-11T16:07:09.909Z,26.60
2018-07-11T16:09:54.528Z,26.60
2018-07-11T16:12:24.884Z,26.10
2018-07-11T16:14:55.269Z,26.20
2018-07-11T16:17:25.328Z,26.30
2018-07-11T16:19:55.188Z,26.50
2018-07-11T16:22:25.168Z,26.70
2018-07-11T16:24:55.188Z,26.50
2018-07-11T16:27:25.068Z,26.60
2018-07-11T16:29:55.349Z,26.90
2018-07-11T16:32:25.088Z,26.50
2018-07-11T16:34:54.849Z,26.40
2018-07-11T16:37:24.771Z,26.40
2018-07-11T16:39:54.989Z,26.50
2018-07-11T16:42:24.848Z,26.50
2018-07-11T16:44:54.648Z,26.20
2018-07-11T16:47:25.308Z,26.60
2018-07-11T16:49:55.908Z,26.30
2018-07-11T16:52:26.148Z,26.70
2018-07-11T16:54:56.090Z,26.60
2018-07-11T16:57:49.589Z,26.70
2018-07-11T17:00:37.868Z,27.00
2018-07-11T17:03:14.348Z,26.80
2018-07-11T17:05:57.668Z,26.70
2018-07-11T17:08:33.129Z,26.80
2018-07-11T17:11:24.068Z,26.70
2018-07-11T17:13:59.428Z,27.00
2018-07-11T17:17:04.970Z,27.00
2018-07-11T17:19:48.128Z,27.10
2018-07-11T17:22:21.629Z,27.00
2018-07-11T17:24:51.868Z,26.60
2018-07-11T17:27:24.349Z,26.80
2018-07-11T17:30:01.148Z,26.70
2018-07-11T17:32:31.569Z,26.70
2018-07-11T17:35:01.870Z,26.40
2018-07-11T17:37:37.468Z,26.40
2018-07-11T17:40:12.408Z,26.20
2018-07-11T17:42:45.548Z,26.10
2018-07-11T17:45:18.728Z,26.50
2018-07-11T17:49:57.188Z,26.60
2018-07-11T17:52:28.829Z,26.80
2018-07-11T17:55:09.128Z,27.00
2018-07-11T17:57:54.488Z,27.20
2018-07-11T18:00:36.908Z,26.70
2018-07-11T18:09:09.951Z,25.50
2018-07-11T18:11:59.068Z,24.90
2018-07-11T18:15:43.856Z,24.40
2018-07-11T18:18:25.175Z,24.20
2018-07-11T18:25:20.090Z,24.00
2018-07-11T18:29:12.095Z,23.70
2018-07-11T18:32:54.815Z,23.20
2018-07-11T18:35:38.916Z,23.00
2018-07-11T18:39:33.395Z,22.80
2018-07-11T18:42:15.452Z,22.40
2018-07-11T18:45:11.955Z,22.20
2018-07-11T18:47:53.828Z,22.10
2018-07-11T18:50:46.398Z,21.90
2018-07-11T18:53:34.818Z,21.70
2018-07-11T18:56:19.537Z,21.60
2018-07-11T18:59:04.000Z,21.40
2018-07-11T19:01:47.357Z,21.30
2018-07-11T19:04:29.917Z,21.30
2018-07-11T19:07:14.337Z,21.00
2018-07-11T19:09:53.257Z,20.90
2018-07-11T19:12:42.947Z,20.80
2018-07-11T19:15:14.121Z,20.70
2018-07-11T19:18:11.382Z,20.70
2018-07-11T19:20:56.957Z,20.50
2018-07-11T19:23:39.257Z,20.50
2018-07-11T19:26:33.764Z,20.40
2018-07-11T19:29:17.717Z,20.30
2018-07-11T19:31:58.597Z,20.30
2018-07-11T19:37:15.577Z,20.20
2018-07-11T19:39:59.017Z,20.10
2018-07-11T19:42:46.358Z,20.10
2018-07-11T19:47:39.098Z,20.10
2018-07-11T19:52:43.897Z,20.20
2018-07-11T19:57:26.616Z,20.20
2018-07-11T19:59:56.508Z,20.10
2018-07-11T20:02:27.028Z,20.20
2018-07-11T20:04:56.848Z,20.10
2018-07-11T20:07:26.649Z,20.10
2018-07-11T20:09:56.751Z,20.10
2018-07-11T20:12:26.631Z,20.00
2018-07-11T20:14:57.492Z,20.00
2018-07-11T20:17:26.933Z,20.00
2018-07-11T20:19:57.273Z,19.90
2018-07-11T20:22:27.271Z,19.90
2018-07-11T20:24:57.072Z,19.90
2018-07-11T20:27:26.855Z,19.90
2018-07-11T20:29:56.711Z,19.90
2018-07-11T20:32:26.552Z,19.80
2018-07-11T20:34:56.112Z,19.70
2018-07-11T20:37:25.852Z,19.60
2018-07-11T20:39:55.832Z,19.60
2018-07-11T20:42:25.831Z,19.50
2018-07-11T20:44:56.159Z,19.50
2018-07-11T20:47:26.137Z,19.40
2018-07-11T20:49:56.012Z,19.40
2018-07-11T20:52:25.672Z,19.30
2018-07-11T20:54:55.352Z,19.30
2018-07-11T20:57:24.832Z,19.30
2018-07-11T21:00:10.691Z,19.30
2018-07-11T21:03:24.996Z,19.20
2018-07-11T21:07:11.831Z,19.10
2018-07-11T21:19:47.572Z,19.30
2018-07-11T21:22:17.551Z,19.30
2018-07-11T21:24:47.111Z,19.30
2018-07-11T21:27:16.631Z,19.30
2018-07-11T21:29:46.531Z,19.20
2018-07-11T21:32:16.191Z,19.20
2018-07-11T21:34:45.792Z,19.20
2018-07-11T21:37:15.831Z,19.20
2018-07-11T21:39:45.775Z,19.20
2018-07-11T21:42:15.371Z,19.20
2018-07-11T21:44:45.013Z,19.20
2018-07-11T21:47:14.891Z,19.20
2018-07-11T21:49:44.871Z,19.20
2018-07-11T21:52:14.211Z,19.20
2018-07-11T21:54:43.711Z,19.20
2018-07-11T21:57:13.659Z,19.10
2018-07-11T21:59:43.371Z,19.20
2018-07-11T22:02:13.312Z,19.20
2018-07-11T22:04:42.912Z,19.30
2018-07-11T22:07:12.511Z,19.20
2018-07-11T22:09:42.132Z,19.10
2018-07-11T22:12:12.071Z,19.20
2018-07-11T22:14:41.651Z,19.10
2018-07-11T22:17:25.513Z,19.10
2018-07-11T22:19:52.831Z,19.10
2018-07-11T22:22:20.151Z,19.10
2018-07-11T22:24:47.452Z,19.00
2018-07-11T22:27:15.012Z,19.10
2018-07-11T22:29:42.191Z,19.10
2018-07-11T22:32:09.871Z,19.00
2018-07-11T22:34:37.131Z,19.00
2018-07-11T22:37:04.451Z,19.00
2018-07-11T22:39:31.695Z,19.00
2018-07-11T22:41:58.923Z,19.00
2018-07-11T22:44:26.411Z,19.10
2018-07-11T22:46:53.633Z,19.00
2018-07-11T22:49:20.892Z,19.00
2018-07-11T22:51:48.191Z,19.00
2018-07-11T22:54:15.494Z,18.90
2018-07-11T22:56:42.691Z,18.80
2018-07-11T22:59:09.954Z,18.80
2018-07-11T23:01:37.231Z,18.70
2018-07-11T23:04:04.551Z,18.70
2018-07-11T23:06:31.831Z,18.60
2018-07-11T23:08:59.491Z,18.50
2018-07-11T23:11:26.691Z,18.40
2018-07-11T23:13:53.991Z,18.40
2018-07-11T23:16:21.291Z,18.40
2018-07-11T23:18:48.631Z,18.30
2018-07-11T23:21:16.291Z,18.30
2018-07-11T23:23:43.573Z,18.20
2018-07-11T23:26:10.772Z,18.20
2018-07-11T23:28:38.112Z,18.20
2018-07-11T23:31:05.354Z,18.20
2018-07-11T23:33:33.611Z,18.20
2018-07-11T23:36:00.911Z,18.10
2018-07-11T23:38:28.312Z,18.00
2018-07-11T23:40:55.533Z,18.00
2018-07-11T23:43:23.273Z,17.80
2018-07-11T23:45:50.492Z,17.80
2018-07-11T23:48:17.832Z,17.80
2018-07-11T23:50:45.072Z,17.70
2018-07-11T23:53:12.471Z,17.70
2018-07-11T23:55:39.694Z,17.60
2018-07-11T23:58:07.051Z,17.50
